Time,TemperatureF,DewpointF,PressureIn,WindDirection,WindDirectionDegrees,WindSpeedMPH,WindSpeedGustMPH,Humidity,HourlyPrecipIn,Conditions,Clouds,dailyrainin,SoftwareType,DateUTC
2013-03-24 00:00:00,42.6,42.1,29.97,West,271,0.0,0.0,98,0.00,,,0.00,Wunderground v.1.15,2013-03-24 07:00:00,
2013-03-24 00:05:00,42.5,42.0,29.97,West,271,0.0,0.0,98,0.00,,,0.00,Wunderground v.1.15,2013-03-24 07:05:00,
2013-03-24 00:10:00,42.3,41.8,29.97,West,271,0.0,0.0,98,0.00,,,0.00,Wunderground v.1.15,2013-03-24 07:10:00,
2013-03-24 00:15:00,42.2,41.7,29.97,West,271,0.0,0.0,98,0.00,,,0.00,Wunderground v.1.15,2013-03-24 07:15:00,
2013-03-24 00:20:00,42.1,41.6,29.97,West,271,0.0,0.0,98,0.00,,,0.00,Wunderground v.1.15,2013-03-24 07:20:00,
2013-03-24 00:25:00,41.9,41.4,29.97,West,271,0.0,0.0,98,0.00,,,0.00,Wunderground v.1.15,2013-03-24 07:25:00,
2013-03-24 00:30:00,41.8,41.3,29.97,West,271,0.0,0.0,98,0.00,,,0.00,Wunderground v.1.15,2013-03-24 07:30:00,
2013-03-24 00:35:00,41.8,41.3,29.97,West,271,0.0,0.0,98,0.00,,,0.00,Wunderground v.1.15,2013-03-24 07:35:00,
2013-03-24 00:40:00,41.8,41.3,29.97,West,271,0.0,0.0,98,0.00,,,0.00,Wunderground v.1.15,2013-03-24 07:40:00,
2013-03-24 00:45:00,41.8,41.5,29.97,West,271,0.0,0.0,99,0.00,,,0.00,Wunderground v.1.15,2013-03-24 07:45:00,
2013-03-24 00:50:00,41.9,41.6,29.97,West,271,0.0,0.0,99,0.00,,,0.00,Wunderground v.1.15,2013-03-24 07:50:00,
2013-03-24 00:55:00,41.6,41.1,29.97,West,271,0.0,0.0,98,0.00,,,0.00,Wunderground v.1.15,2013-03-24 07:55:00,
2013-03-24 01:00:00,41.6,41.3,29.97,West,271,0.0,2.0,99,0.00,,,0.00,Wunderground v.1.15,2013-03-24 08:00:00,
2013-03-24 01:05:00,41.6,41.3,29.97,West,271,0.0,2.0,99,0.00,,,0.00,Wunderground v.1.15,2013-03-24 08:05:00,
2013-03-24 01:10:00,41.6,41.3,29.97,West,271,0.0,0.0,99,0.00,,,0.00,Wunderground v.1.15,2013-03-24 08:10:00,
2013-03-24 01:15:00,41.6,41.6,29.97,West,271,0.0,0.0,100,0.00,,,0.00,Wunderground v.1.15,2013-03-24 08:15:00,
2013-03-24 01:20:00,41.6,41.6,29.97,West,271,0.0,0.0,100,0.00,,,0.00,Wunderground v.1.15,2013-03-24 08:20:00,
2013-03-24 01:25:00,41.6,41.6,29.97,West,271,0.0,0.0,100,0.00,,,0.00,Wunderground v.1.15,2013-03-24 08:25:00,
2013-03-24 01:30:00,41.9,41.9,29.97,West,271,0.0,0.0,100,0.00,,,0.00,Wunderground v.1.15,2013-03-24 08:30:00,
2013-03-24 01:35:00,41.9,41.9,29.97,West,271,0.0,0.0,100,0.00,,,0.00,Wunderground v.1.15,2013-03-24 08:35:00,
2013-03-24 01:40:00,42.1,42.1,29.97,West,271,0.0,0.0,100,0.00,,,0.00,Wunderground v.1.15,2013-03-24 08:40:00,
2013-03-24 01:45:00,42.2,42.2,29.97,West,271,0.0,2.0,100,0.00,,,0.00,Wunderground v.1.15,2013-03-24 08:45:00,
2013-03-24 01:50:00,42.2,42.2,29.97,West,271,0.0,0.0,100,0.00,,,0.00,Wunderground v.1.15,2013-03-24 08:50:00,
2013-03-24 01:55:00,41.9,41.9,29.97,West,271,0.0,0.0,100,0.00,,,0.00,Wunderground v.1.15,2013-03-24 08:55:00,
2013-03-24 02:00:00,41.5,41.5,29.97,West,271,0.0,0.0,100,0.00,,,0.00,Wunderground v.1.15,2013-03-24 09:00:00,
2013-03-24 02:05:00,41.2,41.2,29.97,West,271,0.0,0.0,100,0.00,,,0.00,Wunderground v.1.15,2013-03-24 09:05:00,
2013-03-24 02:10:00,41.1,41.1,29.97,West,271,0.0,0.0,100,0.00,,,0.00,Wunderground v.1.15,2013-03-24 09:10:00,
2013-03-24 02:15:00,41.1,41.1,29.97,West,271,0.0,0.0,100,0.00,,,0.00,Wunderground v.1.15,2013-03-24 09:15:00,
2013-03-24 02:20:00,41.1,41.1,29.97,West,271,0.0,0.0,100,0.00,,,0.00,Wunderground v.1.15,2013-03-24 09:20:00,
2013-03-24 02:25:00,41.1,41.1,29.97,West,271,0.0,0.0,100,0.00,,,0.00,Wunderground v.1.15,2013-03-24 09:25:00,
2013-03-24 02:30:00,41.1,41.1,29.97,West,271,0.0,0.0,100,0.00,,,0.00,Wunderground v.1.15,2013-03-24 09:30:00,
2013-03-24 02:35:00,41.1,41.1,29.97,West,271,0.0,0.0,100,0.00,,,0.00,Wunderground v.1.15,2013-03-24 09:35:00,
2013-03-24 02:40:00,40.9,40.9,29.97,West,271,0.0,0.0,100,0.00,,,0.00,Wunderground v.1.15,2013-03-24 09:40:00,
2013-03-24 02:45:00,40.8,40.8,29.97,West,271,0.0,0.0,100,0.00,,,0.00,Wunderground v.1.15,2013-03-24 09:45:00,
2013-03-24 02:50:00,40.5,40.5,29.97,West,271,0.0,0.0,100,0.00,,,0.00,Wunderground v.1.15,2013-03-24 09:50:00,
2013-03-24 02:55:00,40.1,40.1,29.97,West,271,0.0,0.0,100,0.00,,,0.00,Wunderground v.1.15,2013-03-24 09:55:00,
2013-03-24 03:00:00,40.1,40.1,29.97,West,271,0.0,0.0,100,0.00,,,0.00,Wunderground v.1.15,2013-03-24 10:00:00,
2013-03-24 03:05:00,39.9,39.9,29.97,West,271,0.0,0.0,100,0.00,,,0.00,Wunderground v.1.15,2013-03-24 10:05:00,
2013-03-24 03:10:00,39.8,39.8,29.97,West,271,0.0,0.0,100,0.00,,,0.00,Wunderground v.1.15,2013-03-24 10:10:00,
2013-03-24 03:15:00,39.5,39.5,29.97,West,271,0.0,0.0,100,0.00,,,0.00,Wunderground v.1.15,2013-03-24 10:15:00,
2013-03-24 03:20:00,39.5,39.5,29.97,West,271,0.0,0.0,100,0.00,,,0.00,Wunderground v.1.15,2013-03-24 10:20:00,
2013-03-24 03:25:00,39.3,39.3,29.97,West,271,0.0,0.0,100,0.00,,,0.00,Wunderground v.1.15,2013-03-24 10:25:00,
2013-03-24 03:30:00,39.2,39.2,29.95,West,271,0.0,0.0,100,0.00,,,0.00,Wunderground v.1.15,2013-03-24 10:30:00,
2013-03-24 03:35:00,39.2,39.2,29.95,West,271,0.0,1.0,100,0.00,,,0.00,Wunderground v.1.15,2013-03-24 10:35:00,
2013-03-24 03:40:00,39.3,39.3,29.95,West,271,0.0,0.0,100,0.00,,,0.00,Wunderground v.1.15,2013-03-24 10:40:00,
2013-03-24 03:45:00,39.3,39.3,29.96,West,271,0.0,1.0,100,0.00,,,0.00,Wunderground v.1.15,2013-03-24 10:45:00,
2013-03-24 03:50:00,39.2,39.2,29.96,West,271,0.0,0.0,100,0.00,,,0.00,Wunderground v.1.15,2013-03-24 10:50:00,
2013-03-24 03:55:00,39.6,39.6,29.96,West,271,0.0,2.0,100,0.00,,,0.00,Wunderground v.1.15,2013-03-24 10:55:00,
2013-03-24 04:00:00,39.8,39.8,29.95,West,271,0.0,0.0,100,0.00,,,0.00,Wunderground v.1.15,2013-03-24 11:00:00,
2013-03-24 04:05:00,39.6,39.6,29.95,West,271,0.0,0.0,100,0.00,,,0.00,Wunderground v.1.15,2013-03-24 11:05:00,
2013-03-24 04:10:00,39.6,39.6,29.95,West,271,0.0,0.0,100,0.00,,,0.00,Wunderground v.1.15,2013-03-24 11:10:00,
2013-03-24 04:15:00,39.9,39.9,29.95,West,271,0.0,0.0,100,0.00,,,0.00,Wunderground v.1.15,2013-03-24 11:15:00,
2013-03-24 04:20:00,40.3,40.3,29.95,West,271,0.0,1.0,100,0.00,,,0.00,Wunderground v.1.15,2013-03-24 11:20:00,
2013-03-24 04:25:00,40.9,40.9,29.95,West,271,0.0,2.0,100,0.00,,,0.00,Wunderground v.1.15,2013-03-24 11:25:00,
2013-03-24 04:30:00,40.8,40.8,29.95,West,271,0.0,0.0,100,0.00,,,0.00,Wunderground v.1.15,2013-03-24 11:30:00,
2013-03-24 04:35:00,40.3,40.3,29.95,West,271,0.0,1.0,100,0.00,,,0.00,Wunderground v.1.15,2013-03-24 11:35:00,
2013-03-24 04:40:00,40.5,40.5,29.95,West,271,0.0,0.0,100,0.00,,,0.00,Wunderground v.1.15,2013-03-24 11:40:00,
2013-03-24 04:45:00,40.3,40.3,29.95,West,271,0.0,0.0,100,0.00,,,0.00,Wunderground v.1.15,2013-03-24 11:45:00,
2013-03-24 04:50:00,40.2,40.2,29.95,West,271,0.0,0.0,100,0.00,,,0.00,Wunderground v.1.15,2013-03-24 11:50:00,
2013-03-24 04:55:00,40.1,40.1,29.95,West,271,0.0,0.0,100,0.00,,,0.00,Wunderground v.1.15,2013-03-24 11:55:00,
2013-03-24 05:00:00,39.9,39.9,29.96,West,271,0.0,0.0,100,0.00,,,0.00,Wunderground v.1.15,2013-03-24 12:00:00,
2013-03-24 05:05:00,39.8,39.8,29.96,West,271,0.0,0.0,100,0.00,,,0.00,Wunderground v.1.15,2013-03-24 12:05:00,
2013-03-24 05:10:00,39.8,39.8,29.96,West,271,0.0,0.0,100,0.00,,,0.00,Wunderground v.1.15,2013-03-24 12:10:00,
2013-03-24 05:15:00,39.5,39.5,29.96,West,271,0.0,0.0,100,0.00,,,0.00,Wunderground v.1.15,2013-03-24 12:15:00,
2013-03-24 05:20:00,39.2,39.2,29.96,West,271,0.0,0.0,100,0.00,,,0.00,Wunderground v.1.15,2013-03-24 12:20:00,
2013-03-24 05:25:00,38.9,38.9,29.96,West,271,0.0,0.0,100,0.00,,,0.00,Wunderground v.1.15,2013-03-24 12:25:00,
2013-03-24 05:30:00,38.6,38.6,29.97,West,271,0.0,0.0,100,0.00,,,0.00,Wunderground v.1.15,2013-03-24 12:30:00,
2013-03-24 05:35:00,38.2,38.2,29.97,West,271,0.0,0.0,100,0.00,,,0.00,Wunderground v.1.15,2013-03-24 12:35:00,
2013-03-24 05:40:00,37.9,37.9,29.97,West,271,0.0,0.0,100,0.00,,,0.00,Wunderground v.1.15,2013-03-24 12:40:00,
2013-03-24 05:45:00,37.6,37.6,29.97,West,271,0.0,0.0,100,0.00,,,0.00,Wunderground v.1.15,2013-03-24 12:45:00,
2013-03-24 05:50:00,37.5,37.5,29.97,West,271,0.0,0.0,100,0.00,,,0.00,Wunderground v.1.15,2013-03-24 12:50:00,
2013-03-24 05:55:00,37.5,37.5,29.97,West,271,0.0,0.0,100,0.00,,,0.00,Wunderground v.1.15,2013-03-24 12:55:00,
2013-03-24 06:00:00,37.5,37.5,29.97,West,271,0.0,0.0,100,0.00,,,0.00,Wunderground v.1.15,2013-03-24 13:00:00,
2013-03-24 06:05:00,37.5,37.5,29.97,West,271,0.0,0.0,100,0.00,,,0.00,Wunderground v.1.15,2013-03-24 13:05:00,
2013-03-24 06:10:00,37.3,37.3,29.97,West,271,0.0,0.0,100,0.00,,,0.00,Wunderground v.1.15,2013-03-24 13:10:00,
2013-03-24 06:15:00,37.3,37.3,29.97,West,271,1.0,1.0,100,0.00,,,0.00,Wunderground v.1.15,2013-03-24 13:15:00,
2013-03-24 06:20:00,37.8,37.8,29.97,West,271,0.0,0.0,100,0.00,,,0.00,Wunderground v.1.15,2013-03-24 13:20:00,
2013-03-24 06:25:00,38.0,38.0,29.97,West,271,0.0,0.0,100,0.00,,,0.00,Wunderground v.1.15,2013-03-24 13:25:00,
2013-03-24 06:30:00,38.2,38.2,29.97,West,271,0.0,0.0,100,0.00,,,0.00,Wunderground v.1.15,2013-03-24 13:30:00,
2013-03-24 06:35:00,38.0,38.0,29.97,West,271,0.0,0.0,100,0.00,,,0.00,Wunderground v.1.15,2013-03-24 13:35:00,
2013-03-24 06:40:00,38.0,38.0,29.97,West,271,0.0,0.0,100,0.00,,,0.00,Wunderground v.1.15,2013-03-24 13:40:00,
2013-03-24 06:45:00,37.8,37.8,29.97,West,271,0.0,0.0,100,0.00,,,0.00,Wunderground v.1.15,2013-03-24 13:45:00,
2013-03-24 06:50:00,37.5,37.5,29.97,West,271,0.0,0.0,100,0.00,,,0.00,Wunderground v.1.15,2013-03-24 13:50:00,
2013-03-24 06:55:00,37.2,37.2,29.97,West,271,0.0,0.0,100,0.00,,,0.00,Wunderground v.1.15,2013-03-24 13:55:00,
2013-03-24 07:00:00,37.0,37.0,29.98,West,271,0.0,0.0,100,0.00,,,0.00,Wunderground v.1.15,2013-03-24 14:00:00,
2013-03-24 07:05:00,36.9,36.9,29.98,West,271,0.0,0.0,100,0.00,,,0.00,Wunderground v.1.15,2013-03-24 14:05:00,
2013-03-24 07:10:00,36.9,36.9,29.98,West,271,0.0,0.0,100,0.00,,,0.00,Wunderground v.1.15,2013-03-24 14:10:00,
2013-03-24 07:15:00,36.8,36.8,29.98,West,271,0.0,0.0,100,0.00,,,0.00,Wunderground v.1.15,2013-03-24 14:15:00,
2013-03-24 07:20:00,36.8,36.8,29.98,West,271,0.0,0.0,100,0.00,,,0.00,Wunderground v.1.15,2013-03-24 14:20:00,
2013-03-24 07:25:00,37.0,37.0,29.98,West,271,0.0,0.0,100,0.00,,,0.00,Wunderground v.1.15,2013-03-24 14:25:00,
2013-03-24 07:30:00,37.6,37.6,29.97,West,271,0.0,0.0,100,0.00,,,0.00,Wunderground v.1.15,2013-03-24 14:30:00,
2013-03-24 07:35:00,38.3,38.3,29.97,West,271,0.0,0.0,100,0.00,,,0.00,Wunderground v.1.15,2013-03-24 14:35:00,
2013-03-24 07:40:00,39.1,39.1,29.97,West,271,0.0,0.0,100,0.00,,,0.00,Wunderground v.1.15,2013-03-24 14:40:00,
2013-03-24 07:45:00,39.8,39.8,29.98,West,271,0.0,0.0,100,0.00,,,0.00,Wunderground v.1.15,2013-03-24 14:45:00,
2013-03-24 07:50:00,40.2,40.2,29.98,West,271,0.0,0.0,100,0.00,,,0.00,Wunderground v.1.15,2013-03-24 14:50:00,
2013-03-24 07:55:00,40.5,40.5,29.98,West,271,0.0,1.0,100,0.00,,,0.00,Wunderground v.1.15,2013-03-24 14:55:00,
2013-03-24 08:00:00,40.9,40.9,29.98,West,271,0.0,0.0,100,0.00,,,0.00,Wunderground v.1.15,2013-03-24 15:00:00,
2013-03-24 08:05:00,40.9,40.9,29.98,West,271,0.0,1.0,100,0.00,,,0.00,Wunderground v.1.15,2013-03-24 15:05:00,
2013-03-24 08:10:00,41.3,41.3,29.98,West,271,0.0,0.0,100,0.00,,,0.00,Wunderground v.1.15,2013-03-24 15:10:00,
2013-03-24 08:15:00,41.8,41.8,29.99,West,271,0.0,0.0,100,0.00,,,0.00,Wunderground v.1.15,2013-03-24 15:15:00,
2013-03-24 08:20:00,42.3,42.3,29.99,West,271,0.0,1.0,100,0.00,,,0.00,Wunderground v.1.15,2013-03-24 15:20:00,
2013-03-24 08:25:00,43.3,43.3,29.99,West,271,0.0,1.0,100,0.00,,,0.00,Wunderground v.1.15,2013-03-24 15:25:00,
2013-03-24 08:31:00,44.1,44.1,29.99,West,271,0.0,0.0,100,0.00,,,0.00,Wunderground v.1.15,2013-03-24 15:31:00,
2013-03-24 08:36:00,44.9,44.9,29.99,West,271,0.0,0.0,100,0.00,,,0.00,Wunderground v.1.15,2013-03-24 15:36:00,
2013-03-24 08:41:00,45.8,45.8,29.99,West,271,0.0,0.0,100,0.00,,,0.00,Wunderground v.1.15,2013-03-24 15:41:00,
2013-03-24 08:46:00,47.0,46.7,29.98,West,271,0.0,0.0,99,0.00,,,0.00,Wunderground v.1.15,2013-03-24 15:46:00,
2013-03-24 08:51:00,48.0,47.2,29.98,West,271,0.0,0.0,97,0.00,,,0.00,Wunderground v.1.15,2013-03-24 15:51:00,
2013-03-24 08:56:00,48.9,47.5,29.98,West,271,0.0,0.0,95,0.00,,,0.00,Wunderground v.1.15,2013-03-24 15:56:00,
2013-03-24 09:01:00,49.8,47.9,29.98,SE,124,2.0,4.0,93,0.00,,,0.00,Wunderground v.1.15,2013-03-24 16:01:00,
2013-03-24 09:06:00,49.9,47.1,29.98,SE,124,0.0,4.0,90,0.00,,,0.00,Wunderground v.1.15,2013-03-24 16:06:00,
2013-03-24 09:11:00,50.4,47.3,29.98,SE,124,0.0,0.0,89,0.00,,,0.00,Wunderground v.1.15,2013-03-24 16:11:00,
2013-03-24 09:16:00,51.4,47.0,29.98,SE,124,0.0,1.0,85,0.00,,,0.00,Wunderground v.1.15,2013-03-24 16:16:00,
2013-03-24 09:21:00,52.8,47.5,29.98,SE,124,0.0,0.0,82,0.00,,,0.00,Wunderground v.1.15,2013-03-24 16:21:00,
2013-03-24 09:26:00,54.1,47.7,29.98,SE,124,0.0,0.0,79,0.00,,,0.00,Wunderground v.1.15,2013-03-24 16:26:00,
2013-03-24 09:31:00,55.7,47.9,29.98,SE,124,0.0,2.0,75,0.00,,,0.00,Wunderground v.1.15,2013-03-24 16:31:00,
2013-03-24 09:36:00,57.0,48.4,29.98,SE,124,0.0,2.0,73,0.00,,,0.00,Wunderground v.1.15,2013-03-24 16:36:00,
2013-03-24 09:41:00,58.6,49.6,29.98,ESE,116,0.0,1.0,72,0.00,,,0.00,Wunderground v.1.15,2013-03-24 16:41:00,
2013-03-24 09:46:00,59.6,49.4,29.98,SE,130,0.0,3.0,69,0.00,,,0.00,Wunderground v.1.15,2013-03-24 16:46:00,
2013-03-24 09:52:00,60.2,48.4,29.98,West,264,0.0,5.0,65,0.00,,,0.00,Wunderground v.1.15,2013-03-24 16:52:00,
2013-03-24 09:57:00,61.2,48.5,29.98,West,264,2.0,5.0,63,0.00,,,0.00,Wunderground v.1.15,2013-03-24 16:57:00,
2013-03-24 10:02:00,61.6,47.6,29.98,SSW,203,0.0,1.0,60,0.00,,,0.00,Wunderground v.1.15,2013-03-24 17:02:00,
2013-03-24 10:07:00,62.3,47.8,29.98,SSW,203,0.0,1.0,59,0.00,,,0.00,Wunderground v.1.15,2013-03-24 17:07:00,
2013-03-24 10:12:00,62.7,46.8,29.98,NNW,342,0.0,1.0,56,0.00,,,0.00,Wunderground v.1.15,2013-03-24 17:12:00,
2013-03-24 10:17:00,63.1,47.1,29.98,North,0,1.0,3.0,56,0.00,,,0.00,Wunderground v.1.15,2013-03-24 17:17:00,
2013-03-24 10:22:00,62.7,47.2,29.98,North,358,0.0,5.0,57,0.00,,,0.00,Wunderground v.1.15,2013-03-24 17:22:00,
2013-03-24 10:27:00,63.4,47.4,29.98,North,359,0.0,5.0,56,0.00,,,0.00,Wunderground v.1.15,2013-03-24 17:27:00,
2013-03-24 10:32:00,64.2,46.7,29.97,North,1,0.0,2.0,53,0.00,,,0.00,Wunderground v.1.15,2013-03-24 17:32:00,
2013-03-24 10:37:00,63.7,45.7,29.97,North,358,0.0,4.0,52,0.00,,,0.00,Wunderground v.1.15,2013-03-24 17:37:00,
2013-03-24 10:43:00,63.2,46.3,29.97,NE,56,0.0,5.0,54,0.00,,,0.00,Wunderground v.1.15,2013-03-24 17:43:00,
2013-03-24 10:48:00,63.2,46.3,29.97,North,4,2.0,6.0,54,0.00,,,0.00,Wunderground v.1.15,2013-03-24 17:48:00,
2013-03-24 10:53:00,63.5,46.6,29.97,West,276,2.0,5.0,54,0.00,,,0.00,Wunderground v.1.15,2013-03-24 17:53:00,
2013-03-24 10:58:00,63.9,46.4,29.97,West,281,0.0,5.0,53,0.00,,,0.00,Wunderground v.1.15,2013-03-24 17:58:00,
2013-03-24 11:03:00,64.8,46.8,29.97,NNW,348,1.0,4.0,52,0.00,,,0.00,Wunderground v.1.15,2013-03-24 18:03:00,
2013-03-24 11:08:00,65.0,44.8,29.97,NW,318,1.0,4.0,48,0.00,,,0.00,Wunderground v.1.15,2013-03-24 18:08:00,
2013-03-24 11:13:00,64.7,44.0,29.97,North,1,2.0,5.0,47,0.00,,,0.00,Wunderground v.1.15,2013-03-24 18:13:00,
2013-03-24 11:18:00,64.0,43.4,29.98,North,351,1.0,5.0,47,0.00,,,0.00,Wunderground v.1.15,2013-03-24 18:18:00,
2013-03-24 11:23:00,64.3,43.1,29.98,NE,34,0.0,4.0,46,0.00,,,0.00,Wunderground v.1.15,2013-03-24 18:23:00,
2013-03-24 11:28:00,63.9,42.7,29.98,North,359,2.0,7.0,46,0.00,,,0.00,Wunderground v.1.15,2013-03-24 18:28:00,
2013-03-24 11:33:00,64.0,43.4,29.97,NNW,337,4.0,5.0,47,0.00,,,0.00,Wunderground v.1.15,2013-03-24 18:33:00,
2013-03-24 11:38:00,64.0,42.2,29.97,WSW,249,2.0,5.0,45,0.00,,,0.00,Wunderground v.1.15,2013-03-24 18:38:00,
2013-03-24 11:43:00,63.7,43.1,29.97,NNE,14,1.0,6.0,47,0.00,,,0.00,Wunderground v.1.15,2013-03-24 18:43:00,
2013-03-24 11:48:00,64.3,43.1,29.97,West,259,2.0,6.0,46,0.00,,,0.00,Wunderground v.1.15,2013-03-24 18:48:00,
2013-03-24 11:53:00,64.7,45.1,29.97,North,4,3.0,3.0,49,0.00,,,0.00,Wunderground v.1.15,2013-03-24 18:53:00,
2013-03-24 11:58:00,64.5,46.0,29.97,North,359,1.0,6.0,51,0.00,,,0.00,Wunderground v.1.15,2013-03-24 18:58:00,
2013-03-24 12:03:00,63.4,47.4,29.97,NNE,14,4.0,7.0,56,0.00,,,0.00,Wunderground v.1.15,2013-03-24 19:03:00,
2013-03-24 12:08:00,62.9,47.9,29.97,NNW,329,0.0,7.0,58,0.00,,,0.00,Wunderground v.1.15,2013-03-24 19:08:00,
2013-03-24 12:13:00,62.4,47.4,29.97,SSE,154,1.0,5.0,58,0.00,,,0.00,Wunderground v.1.15,2013-03-24 19:13:00,
2013-03-24 12:18:00,63.4,46.0,29.97,SSE,168,0.0,5.0,53,0.00,,,0.00,Wunderground v.1.15,2013-03-24 19:18:00,
2013-03-24 12:23:00,64.5,44.9,29.97,SSE,168,1.0,2.0,49,0.00,,,0.00,Wunderground v.1.15,2013-03-24 19:23:00,
2013-03-24 12:28:00,65.2,44.5,29.97,SSE,158,0.0,3.0,47,0.00,,,0.00,Wunderground v.1.15,2013-03-24 19:28:00,
2013-03-24 12:33:00,65.5,44.2,29.97,WSW,241,1.0,3.0,46,0.00,,,0.00,Wunderground v.1.15,2013-03-24 19:33:00,
2013-03-24 12:38:00,65.8,43.3,29.97,North,352,2.0,3.0,44,0.00,,,0.00,Wunderground v.1.15,2013-03-24 19:38:00,
2013-03-24 12:43:00,66.0,42.9,29.97,North,349,1.0,7.0,43,0.00,,,0.00,Wunderground v.1.15,2013-03-24 19:43:00,
2013-03-24 12:48:00,66.0,41.6,29.97,SSW,198,2.0,7.0,41,0.00,,,0.00,Wunderground v.1.15,2013-03-24 19:48:00,
2013-03-24 12:53:00,66.4,42.0,29.97,NNE,28,1.0,3.0,41,0.00,,,0.00,Wunderground v.1.15,2013-03-24 19:53:00,
2013-03-24 12:58:00,66.3,42.5,29.97,North,0,3.0,3.0,42,0.00,,,0.00,Wunderground v.1.15,2013-03-24 19:58:00,
2013-03-24 13:03:00,66.6,40.9,29.97,WNW,293,0.0,2.0,39,0.00,,,0.00,Wunderground v.1.15,2013-03-24 20:03:00,
2013-03-24 13:08:00,66.6,40.9,29.97,SSE,157,2.0,4.0,39,0.00,,,0.00,Wunderground v.1.15,2013-03-24 20:08:00,
2013-03-24 13:13:00,66.3,41.2,29.96,South,178,0.0,5.0,40,0.00,,,0.00,Wunderground v.1.15,2013-03-24 20:13:00,
2013-03-24 13:18:00,66.6,41.5,29.96,North,1,0.0,5.0,40,0.00,,,0.00,Wunderground v.1.15,2013-03-24 20:18:00,
2013-03-24 13:23:00,66.3,41.2,29.96,North,355,4.0,5.0,40,0.00,,,0.00,Wunderground v.1.15,2013-03-24 20:23:00,
2013-03-24 13:28:00,66.4,40.7,29.95,South,170,1.0,6.0,39,0.00,,,0.00,Wunderground v.1.15,2013-03-24 20:28:00,
2013-03-24 13:33:00,66.4,42.0,29.95,NNW,346,10.0,10.0,41,0.00,,,0.00,Wunderground v.1.15,2013-03-24 20:33:00,
2013-03-24 13:38:00,65.2,43.3,29.95,NE,45,1.0,10.0,45,0.00,,,0.00,Wunderground v.1.15,2013-03-24 20:38:00,
2013-03-24 13:43:00,64.7,44.5,29.95,North,0,1.0,5.0,48,0.00,,,0.00,Wunderground v.1.15,2013-03-24 20:43:00,
2013-03-24 13:48:00,64.2,45.2,29.95,WNW,288,1.0,8.0,50,0.00,,,0.00,Wunderground v.1.15,2013-03-24 20:48:00,
2013-03-24 13:53:00,64.3,45.3,29.95,SW,220,0.0,4.0,50,0.00,,,0.00,Wunderground v.1.15,2013-03-24 20:53:00,
2013-03-24 13:58:00,64.0,46.5,29.94,North,352,1.0,7.0,53,0.00,,,0.00,Wunderground v.1.15,2013-03-24 20:58:00,
2013-03-24 14:03:00,63.9,46.4,29.94,SW,223,2.0,5.0,53,0.00,,,0.00,Wunderground v.1.15,2013-03-24 21:03:00,
2013-03-24 14:09:00,64.3,46.8,29.94,NNW,343,0.0,5.0,53,0.00,,,0.00,Wunderground v.1.15,2013-03-24 21:09:00,
2013-03-24 14:14:00,64.5,46.5,29.93,South,187,0.0,6.0,52,0.00,,,0.00,Wunderground v.1.15,2013-03-24 21:14:00,
2013-03-24 14:19:00,65.3,45.6,29.93,NNW,348,2.0,6.0,49,0.00,,,0.00,Wunderground v.1.15,2013-03-24 21:19:00,
2013-03-24 14:24:00,65.5,47.4,29.93,North,3,0.0,4.0,52,0.00,,,0.00,Wunderground v.1.15,2013-03-24 21:24:00,
2013-03-24 14:29:00,65.0,48.4,29.93,NNW,344,1.0,5.0,55,0.00,,,0.00,Wunderground v.1.15,2013-03-24 21:29:00,
2013-03-24 14:34:00,64.0,48.0,29.93,North,1,0.0,5.0,56,0.00,,,0.00,Wunderground v.1.15,2013-03-24 21:34:00,
2013-03-24 14:39:00,62.6,47.6,29.93,South,183,1.0,6.0,58,0.00,,,0.00,Wunderground v.1.15,2013-03-24 21:39:00,
2013-03-24 14:44:00,62.7,47.7,29.93,South,176,2.0,4.0,58,0.00,,,0.00,Wunderground v.1.15,2013-03-24 21:44:00,
2013-03-24 14:49:00,61.8,47.3,29.93,NE,34,4.0,9.0,59,0.00,,,0.00,Wunderground v.1.15,2013-03-24 21:49:00,
2013-03-24 14:54:00,61.5,47.5,29.93,WSW,249,1.0,3.0,60,0.00,,,0.00,Wunderground v.1.15,2013-03-24 21:54:00,
2013-03-24 14:59:00,62.0,48.0,29.92,West,273,1.0,4.0,60,0.00,,,0.00,Wunderground v.1.15,2013-03-24 21:59:00,
2013-03-24 15:04:00,62.1,48.0,29.92,WSW,240,0.0,5.0,60,0.00,,,0.00,Wunderground v.1.15,2013-03-24 22:04:00,
2013-03-24 15:09:00,62.0,47.5,29.92,SW,233,0.0,5.0,59,0.00,,,0.00,Wunderground v.1.15,2013-03-24 22:09:00,
2013-03-24 15:14:00,61.8,47.8,29.92,SE,146,0.0,3.0,60,0.00,,,0.00,Wunderground v.1.15,2013-03-24 22:14:00,
2013-03-24 15:19:00,62.3,49.1,29.92,WSW,250,0.0,3.0,62,0.00,,,0.00,Wunderground v.1.15,2013-03-24 22:19:00,
2013-03-24 15:24:00,62.9,49.2,29.92,WSW,238,0.0,2.0,61,0.00,,,0.00,Wunderground v.1.15,2013-03-24 22:24:00,
2013-03-24 15:29:00,62.9,48.8,29.92,SW,229,1.0,6.0,60,0.00,,,0.00,Wunderground v.1.15,2013-03-24 22:29:00,
2013-03-24 15:34:00,61.8,49.1,29.92,SSW,201,1.0,5.0,63,0.00,,,0.00,Wunderground v.1.15,2013-03-24 22:34:00,
2013-03-24 15:39:00,60.2,49.2,29.92,WSW,251,0.0,5.0,67,0.00,,,0.00,Wunderground v.1.15,2013-03-24 22:39:00,
2013-03-24 15:44:00,59.5,49.3,29.91,SW,235,0.0,5.0,69,0.00,,,0.00,Wunderground v.1.15,2013-03-24 22:44:00,
2013-03-24 15:49:00,59.2,49.0,29.91,North,0,1.0,6.0,69,0.00,,,0.00,Wunderground v.1.15,2013-03-24 22:49:00,
2013-03-24 15:54:00,58.9,49.1,29.91,NNW,342,0.0,8.0,70,0.00,,,0.00,Wunderground v.1.15,2013-03-24 22:54:00,
2013-03-24 15:59:00,59.5,49.3,29.91,North,356,3.0,8.0,69,0.00,,,0.00,Wunderground v.1.15,2013-03-24 22:59:00,
2013-03-24 16:04:00,59.3,49.5,29.91,WNW,287,0.0,6.0,70,0.00,,,0.00,Wunderground v.1.15,2013-03-24 23:04:00,
2013-03-24 16:09:00,59.2,49.8,29.91,ENE,68,0.0,6.0,71,0.00,,,0.00,Wunderground v.1.15,2013-03-24 23:09:00,
2013-03-24 16:14:00,59.0,50.0,29.91,WSW,239,3.0,4.0,72,0.00,,,0.00,Wunderground v.1.15,2013-03-24 23:14:00,
2013-03-24 16:19:00,58.6,49.6,29.91,North,11,2.0,4.0,72,0.00,,,0.00,Wunderground v.1.15,2013-03-24 23:19:00,
2013-03-24 16:24:00,58.3,49.7,29.91,West,267,1.0,3.0,73,0.00,,,0.00,Wunderground v.1.15,2013-03-24 23:24:00,
2013-03-24 16:29:00,57.6,49.4,29.91,WSW,248,0.0,4.0,74,0.00,,,0.00,Wunderground v.1.15,2013-03-24 23:29:00,
2013-03-24 16:34:00,57.3,49.4,29.91,NE,43,1.0,7.0,75,0.00,,,0.00,Wunderground v.1.15,2013-03-24 23:34:00,
2013-03-24 16:39:00,57.3,49.8,29.91,SW,234,1.0,7.0,76,0.00,,,0.00,Wunderground v.1.15,2013-03-24 23:39:00,
2013-03-24 16:44:00,57.5,49.6,29.90,ESE,114,0.0,2.0,75,0.00,,,0.00,Wunderground v.1.15,2013-03-24 23:44:00,
2013-03-24 16:49:00,57.2,49.7,29.90,NNW,335,0.0,10.0,76,0.00,,,0.00,Wunderground v.1.15,2013-03-24 23:49:00,
2013-03-24 16:54:00,56.6,49.5,29.90,WSW,248,0.0,3.0,77,0.00,,,0.00,Wunderground v.1.15,2013-03-24 23:54:00,
2013-03-24 16:59:00,56.5,49.4,29.89,WSW,255,0.0,3.0,77,0.00,,,0.00,Wunderground v.1.15,2013-03-24 23:59:00,
2013-03-24 17:04:00,56.3,49.2,29.89,West,261,0.0,3.0,77,0.00,,,0.00,Wunderground v.1.15,2013-03-25 00:04:00,
2013-03-24 17:09:00,56.6,49.5,29.89,West,261,0.0,3.0,77,0.00,,,0.00,Wunderground v.1.15,2013-03-25 00:09:00,
2013-03-24 17:14:00,56.9,49.8,29.89,West,265,3.0,3.0,77,0.00,,,0.00,Wunderground v.1.15,2013-03-25 00:14:00,
2013-03-24 17:19:00,56.6,49.5,29.89,North,351,0.0,9.0,77,0.00,,,0.00,Wunderground v.1.15,2013-03-25 00:19:00,
2013-03-24 17:24:00,56.5,49.7,29.89,West,274,0.0,3.0,78,0.00,,,0.00,Wunderground v.1.15,2013-03-25 00:24:00,
2013-03-24 17:29:00,56.3,49.5,29.89,WNW,290,1.0,3.0,78,0.00,,,0.00,Wunderground v.1.15,2013-03-25 00:29:00,
2013-03-24 17:34:00,56.2,49.4,29.89,WNW,290,0.0,2.0,78,0.00,,,0.00,Wunderground v.1.15,2013-03-25 00:34:00,
2013-03-24 17:39:00,56.0,49.6,29.89,West,281,3.0,3.0,79,0.00,,,0.00,Wunderground v.1.15,2013-03-25 00:39:00,
2013-03-24 17:44:00,55.6,49.2,29.89,WSW,248,0.0,2.0,79,0.00,,,0.00,Wunderground v.1.15,2013-03-25 00:44:00,
2013-03-24 17:49:00,55.4,49.0,29.89,WSW,248,0.0,3.0,79,0.00,,,0.00,Wunderground v.1.15,2013-03-25 00:49:00,
2013-03-24 17:54:00,55.1,48.7,29.89,North,352,0.0,3.0,79,0.00,,,0.00,Wunderground v.1.15,2013-03-25 00:54:00,
2013-03-24 17:59:00,54.8,48.7,29.89,WNW,302,0.0,4.0,80,0.00,,,0.00,Wunderground v.1.15,2013-03-25 00:59:00,
2013-03-24 18:04:00,54.5,48.8,29.89,North,356,0.0,4.0,81,0.00,,,0.00,Wunderground v.1.15,2013-03-25 01:04:00,
2013-03-24 18:09:00,54.1,48.7,29.89,WSW,237,0.0,4.0,82,0.00,,,0.00,Wunderground v.1.15,2013-03-25 01:09:00,
2013-03-24 18:14:00,53.8,48.8,29.88,SW,236,0.0,1.0,83,0.00,,,0.00,Wunderground v.1.15,2013-03-25 01:14:00,
2013-03-24 18:19:00,53.5,48.8,29.88,South,183,0.0,2.0,84,0.00,,,0.00,Wunderground v.1.15,2013-03-25 01:19:00,
2013-03-24 18:24:00,53.1,48.7,29.88,NW,322,0.0,4.0,85,0.00,,,0.00,Wunderground v.1.15,2013-03-25 01:24:00,
2013-03-24 18:29:00,52.8,48.7,29.88,South,188,0.0,4.0,86,0.00,,,0.00,Wunderground v.1.15,2013-03-25 01:29:00,
2013-03-24 18:34:00,52.5,48.7,29.88,ESE,108,0.0,2.0,87,0.00,,,0.00,Wunderground v.1.15,2013-03-25 01:34:00,
2013-03-24 18:39:00,52.2,48.4,29.88,West,274,0.0,4.0,87,0.00,,,0.00,Wunderground v.1.15,2013-03-25 01:39:00,
2013-03-24 18:44:00,52.0,48.6,29.88,ESE,106,1.0,3.0,88,0.00,,,0.00,Wunderground v.1.15,2013-03-25 01:44:00,
2013-03-24 18:49:00,51.7,48.6,29.88,ESE,118,0.0,3.0,89,0.00,,,0.00,Wunderground v.1.15,2013-03-25 01:49:00,
2013-03-24 18:54:00,51.6,48.8,29.88,NNW,346,2.0,4.0,90,0.00,,,0.00,Wunderground v.1.15,2013-03-25 01:54:00,
2013-03-24 18:59:00,51.3,48.5,29.88,NNW,346,0.0,4.0,90,0.00,,,0.00,Wunderground v.1.15,2013-03-25 01:59:00,
2013-03-24 19:04:00,51.1,48.3,29.88,SSE,151,0.0,2.0,90,0.00,,,0.00,Wunderground v.1.15,2013-03-25 02:04:00,
2013-03-24 19:09:00,51.0,48.5,29.88,ESE,108,0.0,4.0,91,0.00,,,0.00,Wunderground v.1.15,2013-03-25 02:09:00,
2013-03-24 19:14:00,50.8,48.3,29.89,North,0,0.0,3.0,91,0.00,,,0.00,Wunderground v.1.15,2013-03-25 02:14:00,
2013-03-24 19:19:00,50.7,48.5,29.89,North,0,0.0,3.0,92,0.00,,,0.00,Wunderground v.1.15,2013-03-25 02:19:00,
2013-03-24 19:24:00,50.5,48.3,29.89,North,0,0.0,0.0,92,0.00,,,0.00,Wunderground v.1.15,2013-03-25 02:24:00,
2013-03-24 19:29:00,50.2,48.0,29.88,North,0,0.0,0.0,92,0.00,,,0.00,Wunderground v.1.15,2013-03-25 02:29:00,
2013-03-24 19:34:00,50.1,47.9,29.88,North,0,0.0,0.0,92,0.00,,,0.00,Wunderground v.1.15,2013-03-25 02:34:00,
2013-03-24 19:39:00,49.9,48.0,29.88,North,0,0.0,0.0,93,0.00,,,0.00,Wunderground v.1.15,2013-03-25 02:39:00,
2013-03-24 19:44:00,49.6,47.7,29.88,North,0,0.0,0.0,93,0.00,,,0.00,Wunderground v.1.15,2013-03-25 02:44:00,
2013-03-24 19:49:00,49.5,47.6,29.88,North,0,0.0,0.0,93,0.00,,,0.00,Wunderground v.1.15,2013-03-25 02:49:00,
2013-03-24 19:54:00,49.2,47.3,29.88,North,0,0.0,0.0,93,0.00,,,0.00,Wunderground v.1.15,2013-03-25 02:54:00,
2013-03-24 19:59:00,49.1,47.4,29.89,North,0,0.0,0.0,94,0.00,,,0.00,Wunderground v.1.15,2013-03-25 02:59:00,
2013-03-24 20:04:00,48.9,47.2,29.89,North,0,0.0,0.0,94,0.00,,,0.00,Wunderground v.1.15,2013-03-25 03:04:00,
2013-03-24 20:09:00,48.6,47.0,29.89,North,0,0.0,0.0,94,0.00,,,0.00,Wunderground v.1.15,2013-03-25 03:09:00,
2013-03-24 20:14:00,48.5,46.9,29.89,North,0,0.0,0.0,94,0.00,,,0.00,Wunderground v.1.15,2013-03-25 03:14:00,
2013-03-24 20:19:00,48.3,46.7,29.89,North,0,0.0,0.0,94,0.00,,,0.00,Wunderground v.1.15,2013-03-25 03:19:00,
2013-03-24 20:24:00,48.0,46.6,29.89,North,0,0.0,0.0,95,0.00,,,0.00,Wunderground v.1.15,2013-03-25 03:24:00,
2013-03-24 20:29:00,47.9,46.5,29.89,North,0,0.0,0.0,95,0.00,,,0.00,Wunderground v.1.15,2013-03-25 03:29:00,
2013-03-24 20:34:00,47.7,46.3,29.89,North,0,0.0,0.0,95,0.00,,,0.00,Wunderground v.1.15,2013-03-25 03:34:00,
2013-03-24 20:39:00,47.6,46.2,29.89,North,0,0.0,0.0,95,0.00,,,0.00,Wunderground v.1.15,2013-03-25 03:39:00,
2013-03-24 20:44:00,47.6,46.5,29.89,North,0,0.0,0.0,96,0.00,,,0.00,Wunderground v.1.15,2013-03-25 03:44:00,
2013-03-24 20:49:00,47.4,46.3,29.89,North,0,0.0,0.0,96,0.00,,,0.00,Wunderground v.1.15,2013-03-25 03:49:00,
2013-03-24 20:54:00,47.3,46.2,29.89,North,0,0.0,0.0,96,0.00,,,0.00,Wunderground v.1.15,2013-03-25 03:54:00,
2013-03-24 20:59:00,47.1,46.0,29.90,North,0,0.0,0.0,96,0.00,,,0.00,Wunderground v.1.15,2013-03-25 03:59:00,
2013-03-24 21:00:00,47.1,46.0,29.90,North,0,0.0,0.0,96,0.00,,,0.00,Wunderground v.1.15,2013-03-25 04:00:00,
2013-03-24 21:05:00,47.1,46.0,29.90,North,0,0.0,1.0,96,0.00,,,0.00,Wunderground v.1.15,2013-03-25 04:05:00,
2013-03-24 21:10:00,47.0,45.9,29.90,North,0,0.0,0.0,96,0.00,,,0.00,Wunderground v.1.15,2013-03-25 04:10:00,
2013-03-24 21:15:00,46.8,45.7,29.90,North,0,0.0,0.0,96,0.00,,,0.00,Wunderground v.1.15,2013-03-25 04:15:00,
2013-03-24 21:20:00,46.7,45.9,29.90,North,0,0.0,0.0,97,0.00,,,0.00,Wunderground v.1.15,2013-03-25 04:20:00,
2013-03-24 21:25:00,46.5,45.7,29.90,North,0,0.0,0.0,97,0.00,,,0.00,Wunderground v.1.15,2013-03-25 04:25:00,
2013-03-24 21:30:00,46.5,45.7,29.90,North,0,0.0,0.0,97,0.00,,,0.00,Wunderground v.1.15,2013-03-25 04:30:00,
2013-03-24 21:35:00,46.4,45.6,29.90,North,0,0.0,1.0,97,0.00,,,0.00,Wunderground v.1.15,2013-03-25 04:35:00,
2013-03-24 21:40:00,46.2,45.4,29.90,North,0,0.0,0.0,97,0.00,,,0.00,Wunderground v.1.15,2013-03-25 04:40:00,
2013-03-24 21:45:00,46.0,45.2,29.90,North,0,0.0,0.0,97,0.00,,,0.00,Wunderground v.1.15,2013-03-25 04:45:00,
2013-03-24 21:50:00,45.8,45.0,29.90,North,0,0.0,0.0,97,0.00,,,0.00,Wunderground v.1.15,2013-03-25 04:50:00,
2013-03-24 21:55:00,45.8,45.3,29.90,North,0,0.0,1.0,98,0.00,,,0.00,Wunderground v.1.15,2013-03-25 04:55:00,
2013-03-24 22:00:00,45.8,45.3,29.90,North,0,0.0,0.0,98,0.00,,,0.00,Wunderground v.1.15,2013-03-25 05:00:00,
2013-03-24 22:05:00,45.5,45.0,29.90,North,0,0.0,0.0,98,0.00,,,0.00,Wunderground v.1.15,2013-03-25 05:05:00,
2013-03-24 22:10:00,45.2,44.7,29.90,North,0,0.0,0.0,98,0.00,,,0.00,Wunderground v.1.15,2013-03-25 05:10:00,
2013-03-24 22:15:00,45.1,44.6,29.90,North,0,0.0,0.0,98,0.00,,,0.00,Wunderground v.1.15,2013-03-25 05:15:00,
2013-03-24 22:20:00,44.9,44.4,29.90,North,0,0.0,0.0,98,0.00,,,0.00,Wunderground v.1.15,2013-03-25 05:20:00,
2013-03-24 22:25:00,44.6,44.1,29.90,North,0,0.0,0.0,98,0.00,,,0.00,Wunderground v.1.15,2013-03-25 05:25:00,
2013-03-24 22:30:00,44.6,44.1,29.90,North,0,0.0,0.0,98,0.00,,,0.00,Wunderground v.1.15,2013-03-25 05:30:00,
2013-03-24 22:35:00,44.5,44.0,29.90,North,0,0.0,0.0,98,0.00,,,0.00,Wunderground v.1.15,2013-03-25 05:35:00,
2013-03-24 22:40:00,44.5,44.2,29.90,North,0,0.0,0.0,99,0.00,,,0.00,Wunderground v.1.15,2013-03-25 05:40:00,
2013-03-24 22:45:00,44.5,44.2,29.90,North,0,0.0,0.0,99,0.00,,,0.00,Wunderground v.1.15,2013-03-25 05:45:00,
2013-03-24 22:50:00,44.5,44.2,29.90,North,0,0.0,0.0,99,0.00,,,0.00,Wunderground v.1.15,2013-03-25 05:50:00,
2013-03-24 22:55:00,44.5,44.2,29.90,North,0,0.0,0.0,99,0.00,,,0.00,Wunderground v.1.15,2013-03-25 05:55:00,
2013-03-24 23:00:00,44.3,44.0,29.90,North,0,0.0,0.0,99,0.00,,,0.00,Wunderground v.1.15,2013-03-25 06:00:00,
2013-03-24 23:05:00,44.1,43.8,29.90,North,0,0.0,0.0,99,0.00,,,0.00,Wunderground v.1.15,2013-03-25 06:05:00,
2013-03-24 23:10:00,43.8,43.5,29.90,North,0,0.0,0.0,99,0.00,,,0.00,Wunderground v.1.15,2013-03-25 06:10:00,
2013-03-24 23:15:00,43.6,43.3,29.91,North,0,0.0,0.0,99,0.00,,,0.00,Wunderground v.1.15,2013-03-25 06:15:00,
2013-03-24 23:20:00,43.5,43.5,29.91,North,0,0.0,0.0,100,0.00,,,0.00,Wunderground v.1.15,2013-03-25 06:20:00,
2013-03-24 23:25:00,43.3,43.3,29.91,North,0,0.0,0.0,100,0.00,,,0.00,Wunderground v.1.15,2013-03-25 06:25:00,
2013-03-24 23:30:00,43.2,43.2,29.91,North,0,0.0,0.0,100,0.00,,,0.00,Wunderground v.1.15,2013-03-25 06:30:00,
2013-03-24 23:35:00,43.2,43.2,29.91,North,0,0.0,0.0,100,0.00,,,0.00,Wunderground v.1.15,2013-03-25 06:35:00,
2013-03-24 23:40:00,43.1,43.1,29.91,North,0,0.0,0.0,100,0.00,,,0.00,Wunderground v.1.15,2013-03-25 06:40:00,
2013-03-24 23:45:00,42.9,42.9,29.91,North,0,0.0,0.0,100,0.00,,,0.00,Wunderground v.1.15,2013-03-25 06:45:00,
2013-03-24 23:50:00,42.8,42.8,29.91,North,0,0.0,0.0,100,0.00,,,0.00,Wunderground v.1.15,2013-03-25 06:50:00,
2013-03-24 23:55:00,42.5,42.5,29.91,North,0,0.0,0.0,100,0.00,,,0.00,Wunderground v.1.15,2013-03-25 06:55:00,